sensor_id;sensor_type;location;lat;lon;timestamp;P1;durP1;ratioP1;P2;durP2;ratioP2
68484;SDS011;55472;50.060;21.960;2022-08-01T00:01:46;1.92;;;0.50;;
68484;SDS011;55472;50.060;21.960;2022-08-01T00:04:12;2.58;;;0.70;;
68484;SDS011;55472;50.060;21.960;2022-08-01T00:06:38;1.43;;;0.43;;
68484;SDS011;55472;50.060;21.960;2022-08-01T00:09:03;2.83;;;0.70;;
68484;SDS011;55472;50.060;21.960;2022-08-01T00:11:29;1.48;;;0.50;;
68484;SDS011;55472;50.060;21.960;2022-08-01T00:13:55;1.73;;;0.60;;
68484;SDS011;55472;50.060;21.960;2022-08-01T00:16:21;2.60;;;0.80;;
68484;SDS011;55472;50.060;21.960;2022-08-01T00:18:48;3.50;;;0.90;;
68484;SDS011;55472;50.060;21.960;2022-08-01T00:21:15;3.25;;;1.05;;
68484;SDS011;55472;50.060;21.960;2022-08-01T00:23:42;3.42;;;1.00;;
68484;SDS011;55472;50.060;21.960;2022-08-01T00:26:10;3.27;;;0.70;;
68484;SDS011;55472;50.060;21.960;2022-08-01T00:28:38;2.85;;;0.40;;
68484;SDS011;55472;50.060;21.960;2022-08-01T00:31:04;3.47;;;0.70;;
68484;SDS011;55472;50.060;21.960;2022-08-01T00:33:30;2.17;;;0.70;;
68484;SDS011;55472;50.060;21.960;2022-08-01T00:35:56;1.85;;;0.70;;
68484;SDS011;55472;50.060;21.960;2022-08-01T00:38:22;2.83;;;0.70;;
68484;SDS011;55472;50.060;21.960;2022-08-01T00:40:48;2.97;;;0.60;;
68484;SDS011;55472;50.060;21.960;2022-08-01T00:43:14;1.60;;;0.50;;
68484;SDS011;55472;50.060;21.960;2022-08-01T00:45:41;2.20;;;0.80;;
68484;SDS011;55472;50.060;21.960;2022-08-01T00:48:07;4.55;;;0.80;;
68484;SDS011;55472;50.060;21.960;2022-08-01T00:50:33;3.42;;;0.70;;
68484;SDS011;55472;50.060;21.960;2022-08-01T00:53:00;3.10;;;0.68;;
68484;SDS011;55472;50.060;21.960;2022-08-01T00:55:28;1.88;;;0.70;;
68484;SDS011;55472;50.060;21.960;2022-08-01T00:57:54;2.10;;;0.70;;
68484;SDS011;55472;50.060;21.960;2022-08-01T01:00:21;2.83;;;0.65;;
68484;SDS011;55472;50.060;21.960;2022-08-01T01:02:47;2.95;;;0.80;;
68484;SDS011;55472;50.060;21.960;2022-08-01T01:05:13;2.47;;;0.65;;
68484;SDS011;55472;50.060;21.960;2022-08-01T01:07:44;1.80;;;0.60;;
68484;SDS011;55472;50.060;21.960;2022-08-01T01:13:10;1.52;;;0.50;;
68484;SDS011;55472;50.060;21.960;2022-08-01T01:16:00;2.53;;;0.50;;
68484;SDS011;55472;50.060;21.960;2022-08-01T01:18:33;1.52;;;0.40;;
68484;SDS011;55472;50.060;21.960;2022-08-01T01:29:35;1.67;;;0.50;;
68484;SDS011;55472;50.060;21.960;2022-08-01T01:32:10;1.45;;;0.50;;
68484;SDS011;55472;50.060;21.960;2022-08-01T01:34:42;1.38;;;0.40;;
68484;SDS011;55472;50.060;21.960;2022-08-01T01:37:12;1.73;;;0.37;;
68484;SDS011;55472;50.060;21.960;2022-08-01T01:39:43;1.95;;;0.47;;
68484;SDS011;55472;50.060;21.960;2022-08-01T01:42:12;1.48;;;0.40;;
68484;SDS011;55472;50.060;21.960;2022-08-01T01:44:39;1.20;;;0.43;;
68484;SDS011;55472;50.060;21.960;2022-08-01T01:47:06;1.50;;;0.50;;
68484;SDS011;55472;50.060;21.960;2022-08-01T01:49:32;1.00;;;0.30;;
68484;SDS011;55472;50.060;21.960;2022-08-01T01:51:59;0.70;;;0.20;;
68484;SDS011;55472;50.060;21.960;2022-08-01T01:54:28;0.90;;;0.30;;
68484;SDS011;55472;50.060;21.960;2022-08-01T01:56:59;1.10;;;0.30;;
68484;SDS011;55472;50.060;21.960;2022-08-01T01:59:30;1.40;;;0.30;;
68484;SDS011;55472;50.060;21.960;2022-08-01T02:02:02;1.30;;;0.40;;
68484;SDS011;55472;50.060;21.960;2022-08-01T02:04:30;1.70;;;0.60;;
68484;SDS011;55472;50.060;21.960;2022-08-01T02:06:57;1.30;;;0.30;;
68484;SDS011;55472;50.060;21.960;2022-08-01T02:09:26;3.22;;;0.30;;
68484;SDS011;55472;50.060;21.960;2022-08-01T02:11:53;2.35;;;0.40;;
68484;SDS011;55472;50.060;21.960;2022-08-01T02:14:21;0.83;;;0.30;;
68484;SDS011;55472;50.060;21.960;2022-08-01T02:16:49;2.45;;;0.40;;
68484;SDS011;55472;50.060;21.960;2022-08-01T02:19:18;2.65;;;0.40;;
68484;SDS011;55472;50.060;21.960;2022-08-01T02:24:27;2.20;;;0.77;;
68484;SDS011;55472;50.060;21.960;2022-08-01T02:27:05;2.87;;;0.73;;
68484;SDS011;55472;50.060;21.960;2022-08-01T02:29:40;3.92;;;0.90;;
68484;SDS011;55472;50.060;21.960;2022-08-01T02:32:31;3.33;;;1.10;;
68484;SDS011;55472;50.060;21.960;2022-08-01T02:35:13;5.38;;;1.00;;
68484;SDS011;55472;50.060;21.960;2022-08-01T02:37:48;2.58;;;1.00;;
68484;SDS011;55472;50.060;21.960;2022-08-01T02:40:15;2.97;;;1.20;;
68484;SDS011;55472;50.060;21.960;2022-08-01T02:42:47;5.00;;;1.40;;
68484;SDS011;55472;50.060;21.960;2022-08-01T02:45:20;6.20;;;1.70;;
68484;SDS011;55472;50.060;21.960;2022-08-01T02:47:50;3.97;;;1.50;;
68484;SDS011;55472;50.060;21.960;2022-08-01T02:50:19;5.07;;;1.77;;
68484;SDS011;55472;50.060;21.960;2022-08-01T02:52:49;5.50;;;1.70;;
68484;SDS011;55472;50.060;21.960;2022-08-01T02:55:17;3.90;;;1.70;;
68484;SDS011;55472;50.060;21.960;2022-08-01T02:57:45;5.07;;;2.15;;
68484;SDS011;55472;50.060;21.960;2022-08-01T03:00:14;4.35;;;2.38;;
68484;SDS011;55472;50.060;21.960;2022-08-01T03:02:42;4.28;;;2.10;;
68484;SDS011;55472;50.060;21.960;2022-08-01T03:05:10;5.83;;;2.47;;
68484;SDS011;55472;50.060;21.960;2022-08-01T03:07:38;5.88;;;2.50;;
68484;SDS011;55472;50.060;21.960;2022-08-01T03:10:05;5.43;;;2.53;;
68484;SDS011;55472;50.060;21.960;2022-08-01T03:12:33;4.20;;;2.13;;
68484;SDS011;55472;50.060;21.960;2022-08-01T03:15:00;5.57;;;2.10;;
68484;SDS011;55472;50.060;21.960;2022-08-01T03:17:28;6.23;;;2.03;;
68484;SDS011;55472;50.060;21.960;2022-08-01T03:19:56;5.10;;;1.88;;
68484;SDS011;55472;50.060;21.960;2022-08-01T03:22:24;4.03;;;1.30;;
68484;SDS011;55472;50.060;21.960;2022-08-01T03:24:53;5.20;;;1.60;;
68484;SDS011;55472;50.060;21.960;2022-08-01T03:27:22;3.17;;;1.20;;
68484;SDS011;55472;50.060;21.960;2022-08-01T03:29:50;3.07;;;1.20;;
68484;SDS011;55472;50.060;21.960;2022-08-01T03:32:17;2.28;;;0.90;;
68484;SDS011;55472;50.060;21.960;2022-08-01T03:34:46;2.42;;;1.00;;
68484;SDS011;55472;50.060;21.960;2022-08-01T03:37:22;2.00;;;0.70;;
68484;SDS011;55472;50.060;21.960;2022-08-01T03:39:58;2.53;;;0.80;;
68484;SDS011;55472;50.060;21.960;2022-08-01T03:42:32;1.80;;;0.57;;
68484;SDS011;55472;50.060;21.960;2022-08-01T03:45:03;2.00;;;0.70;;
68484;SDS011;55472;50.060;21.960;2022-08-01T03:47:37;1.80;;;0.60;;
68484;SDS011;55472;50.060;21.960;2022-08-01T03:50:08;2.00;;;0.60;;
68484;SDS011;55472;50.060;21.960;2022-08-01T03:52:37;1.60;;;0.50;;
68484;SDS011;55472;50.060;21.960;2022-08-01T03:55:05;1.40;;;0.50;;
68484;SDS011;55472;50.060;21.960;2022-08-01T03:57:33;2.08;;;0.50;;
68484;SDS011;55472;50.060;21.960;2022-08-01T04:00:00;1.80;;;0.60;;
68484;SDS011;55472;50.060;21.960;2022-08-01T04:02:31;1.55;;;0.50;;
68484;SDS011;55472;50.060;21.960;2022-08-01T04:04:58;3.33;;;0.60;;
68484;SDS011;55472;50.060;21.960;2022-08-01T04:07:27;1.70;;;0.50;;
68484;SDS011;55472;50.060;21.960;2022-08-01T04:09:57;2.47;;;0.60;;
68484;SDS011;55472;50.060;21.960;2022-08-01T04:12:24;1.42;;;0.52;;
68484;SDS011;55472;50.060;21.960;2022-08-01T04:14:50;1.92;;;0.73;;
68484;SDS011;55472;50.060;21.960;2022-08-01T04:17:16;2.00;;;0.77;;
68484;SDS011;55472;50.060;21.960;2022-08-01T04:19:43;2.73;;;0.83;;
68484;SDS011;55472;50.060;21.960;2022-08-01T04:22:10;2.40;;;0.90;;
68484;SDS011;55472;50.060;21.960;2022-08-01T04:24:38;3.28;;;1.35;;
68484;SDS011;55472;50.060;21.960;2022-08-01T04:27:11;2.72;;;1.17;;
68484;SDS011;55472;50.060;21.960;2022-08-01T04:29:40;4.18;;;1.20;;
68484;SDS011;55472;50.060;21.960;2022-08-01T04:32:09;3.97;;;1.30;;
68484;SDS011;55472;50.060;21.960;2022-08-01T04:34:38;3.00;;;1.30;;
68484;SDS011;55472;50.060;21.960;2022-08-01T04:37:10;3.83;;;1.50;;
68484;SDS011;55472;50.060;21.960;2022-08-01T04:39:37;3.53;;;1.67;;
68484;SDS011;55472;50.060;21.960;2022-08-01T04:42:07;6.30;;;2.67;;
68484;SDS011;55472;50.060;21.960;2022-08-01T04:44:33;5.07;;;2.60;;
68484;SDS011;55472;50.060;21.960;2022-08-01T04:47:00;4.97;;;2.55;;
68484;SDS011;55472;50.060;21.960;2022-08-01T04:49:30;5.05;;;2.45;;
68484;SDS011;55472;50.060;21.960;2022-08-01T04:51:57;7.03;;;2.83;;
68484;SDS011;55472;50.060;21.960;2022-08-01T04:54:28;5.20;;;2.65;;
68484;SDS011;55472;50.060;21.960;2022-08-01T04:56:58;6.43;;;2.67;;
68484;SDS011;55472;50.060;21.960;2022-08-01T04:59:25;4.93;;;2.60;;
68484;SDS011;55472;50.060;21.960;2022-08-01T05:04:52;5.80;;;2.38;;
68484;SDS011;55472;50.060;21.960;2022-08-01T05:07:20;6.00;;;2.70;;
68484;SDS011;55472;50.060;21.960;2022-08-01T05:09:47;5.57;;;3.07;;
68484;SDS011;55472;50.060;21.960;2022-08-01T05:12:13;6.22;;;3.13;;
68484;SDS011;55472;50.060;21.960;2022-08-01T05:14:39;7.47;;;3.55;;
68484;SDS011;55472;50.060;21.960;2022-08-01T05:17:06;6.07;;;3.20;;
68484;SDS011;55472;50.060;21.960;2022-08-01T05:19:34;6.93;;;3.38;;
68484;SDS011;55472;50.060;21.960;2022-08-01T05:22:05;10.33;;;3.77;;
68484;SDS011;55472;50.060;21.960;2022-08-01T05:24:33;10.07;;;3.50;;
68484;SDS011;55472;50.060;21.960;2022-08-01T05:27:02;9.40;;;4.20;;
68484;SDS011;55472;50.060;21.960;2022-08-01T05:29:29;9.93;;;4.68;;
68484;SDS011;55472;50.060;21.960;2022-08-01T05:31:56;11.43;;;5.25;;
68484;SDS011;55472;50.060;21.960;2022-08-01T05:34:23;9.70;;;4.50;;
68484;SDS011;55472;50.060;21.960;2022-08-01T05:36:49;11.07;;;5.10;;
68484;SDS011;55472;50.060;21.960;2022-08-01T05:39:15;12.45;;;5.70;;
68484;SDS011;55472;50.060;21.960;2022-08-01T05:41:41;12.75;;;5.72;;
68484;SDS011;55472;50.060;21.960;2022-08-01T05:44:07;12.37;;;6.00;;
68484;SDS011;55472;50.060;21.960;2022-08-01T05:46:34;14.00;;;6.05;;
68484;SDS011;55472;50.060;21.960;2022-08-01T05:49:01;12.18;;;5.80;;
68484;SDS011;55472;50.060;21.960;2022-08-01T05:51:28;13.68;;;5.90;;
68484;SDS011;55472;50.060;21.960;2022-08-01T05:53:54;11.70;;;6.22;;
68484;SDS011;55472;50.060;21.960;2022-08-01T05:56:21;12.20;;;5.30;;
68484;SDS011;55472;50.060;21.960;2022-08-01T05:58:47;11.90;;;6.25;;
68484;SDS011;55472;50.060;21.960;2022-08-01T06:01:14;11.27;;;6.07;;
68484;SDS011;55472;50.060;21.960;2022-08-01T06:03:42;12.30;;;6.15;;
68484;SDS011;55472;50.060;21.960;2022-08-01T06:06:08;11.20;;;5.60;;
68484;SDS011;55472;50.060;21.960;2022-08-01T06:08:33;12.80;;;6.10;;
68484;SDS011;55472;50.060;21.960;2022-08-01T06:11:00;10.90;;;5.72;;
68484;SDS011;55472;50.060;21.960;2022-08-01T06:13:26;12.40;;;5.97;;
68484;SDS011;55472;50.060;21.960;2022-08-01T06:15:52;15.90;;;6.40;;
68484;SDS011;55472;50.060;21.960;2022-08-01T06:18:18;13.37;;;6.20;;
68484;SDS011;55472;50.060;21.960;2022-08-01T06:20:46;14.20;;;6.93;;
68484;SDS011;55472;50.060;21.960;2022-08-01T06:23:12;15.73;;;7.05;;
68484;SDS011;55472;50.060;21.960;2022-08-01T06:25:41;13.48;;;6.90;;
68484;SDS011;55472;50.060;21.960;2022-08-01T06:28:07;15.43;;;6.93;;
68484;SDS011;55472;50.060;21.960;2022-08-01T06:30:34;14.10;;;6.57;;
68484;SDS011;55472;50.060;21.960;2022-08-01T06:33:00;14.15;;;6.93;;
68484;SDS011;55472;50.060;21.960;2022-08-01T06:35:26;17.58;;;7.15;;
68484;SDS011;55472;50.060;21.960;2022-08-01T06:37:54;14.57;;;7.10;;
68484;SDS011;55472;50.060;21.960;2022-08-01T06:40:23;17.10;;;8.50;;
68484;SDS011;55472;50.060;21.960;2022-08-01T06:42:49;16.48;;;8.18;;
68484;SDS011;55472;50.060;21.960;2022-08-01T06:45:15;17.02;;;8.90;;
68484;SDS011;55472;50.060;21.960;2022-08-01T06:47:42;18.10;;;8.77;;
68484;SDS011;55472;50.060;21.960;2022-08-01T06:50:10;18.80;;;8.60;;
68484;SDS011;55472;50.060;21.960;2022-08-01T06:52:36;19.43;;;9.30;;
68484;SDS011;55472;50.060;21.960;2022-08-01T06:55:03;21.45;;;10.32;;
68484;SDS011;55472;50.060;21.960;2022-08-01T06:57:30;23.88;;;9.55;;
68484;SDS011;55472;50.060;21.960;2022-08-01T06:59:56;19.85;;;9.48;;
68484;SDS011;55472;50.060;21.960;2022-08-01T07:02:23;19.23;;;9.80;;
68484;SDS011;55472;50.060;21.960;2022-08-01T07:04:49;20.38;;;9.20;;
68484;SDS011;55472;50.060;21.960;2022-08-01T07:07:14;23.08;;;9.82;;
68484;SDS011;55472;50.060;21.960;2022-08-01T07:09:41;19.07;;;9.30;;
68484;SDS011;55472;50.060;21.960;2022-08-01T07:12:15;19.10;;;9.25;;
68484;SDS011;55472;50.060;21.960;2022-08-01T07:14:41;19.45;;;9.25;;
68484;SDS011;55472;50.060;21.960;2022-08-01T07:17:07;18.33;;;9.38;;
68484;SDS011;55472;50.060;21.960;2022-08-01T07:19:33;19.50;;;9.23;;
68484;SDS011;55472;50.060;21.960;2022-08-01T07:21:59;16.60;;;9.13;;
68484;SDS011;55472;50.060;21.960;2022-08-01T07:24:25;16.73;;;8.68;;
68484;SDS011;55472;50.060;21.960;2022-08-01T07:26:51;16.63;;;8.57;;
68484;SDS011;55472;50.060;21.960;2022-08-01T07:29:19;14.05;;;8.02;;
68484;SDS011;55472;50.060;21.960;2022-08-01T07:31:49;14.65;;;8.05;;
68484;SDS011;55472;50.060;21.960;2022-08-01T07:34:20;14.75;;;7.90;;
68484;SDS011;55472;50.060;21.960;2022-08-01T07:36:47;15.65;;;7.75;;
68484;SDS011;55472;50.060;21.960;2022-08-01T07:39:13;12.17;;;7.17;;
68484;SDS011;55472;50.060;21.960;2022-08-01T07:41:39;12.95;;;7.85;;
68484;SDS011;55472;50.060;21.960;2022-08-01T07:44:05;14.45;;;8.23;;
68484;SDS011;55472;50.060;21.960;2022-08-01T07:46:30;16.20;;;7.93;;
68484;SDS011;55472;50.060;21.960;2022-08-01T07:48:57;13.05;;;7.28;;
68484;SDS011;55472;50.060;21.960;2022-08-01T07:51:22;12.15;;;7.88;;
68484;SDS011;55472;50.060;21.960;2022-08-01T07:53:48;15.10;;;7.68;;
68484;SDS011;55472;50.060;21.960;2022-08-01T07:56:14;12.80;;;7.00;;
68484;SDS011;55472;50.060;21.960;2022-08-01T07:58:43;13.30;;;7.35;;
68484;SDS011;55472;50.060;21.960;2022-08-01T08:01:09;13.52;;;7.40;;
68484;SDS011;55472;50.060;21.960;2022-08-01T08:03:35;12.75;;;6.95;;
68484;SDS011;55472;50.060;21.960;2022-08-01T08:06:00;10.73;;;6.63;;
68484;SDS011;55472;50.060;21.960;2022-08-01T08:08:26;13.07;;;6.45;;
68484;SDS011;55472;50.060;21.960;2022-08-01T08:10:53;9.18;;;5.80;;
68484;SDS011;55472;50.060;21.960;2022-08-01T08:13:20;11.93;;;6.13;;
68484;SDS011;55472;50.060;21.960;2022-08-01T08:15:46;10.60;;;5.78;;
68484;SDS011;55472;50.060;21.960;2022-08-01T08:18:12;9.77;;;5.97;;
68484;SDS011;55472;50.060;21.960;2022-08-01T08:20:38;9.02;;;5.60;;
68484;SDS011;55472;50.060;21.960;2022-08-01T08:23:04;8.68;;;5.55;;
68484;SDS011;55472;50.060;21.960;2022-08-01T08:25:50;11.93;;;5.43;;
68484;SDS011;55472;50.060;21.960;2022-08-01T08:28:16;11.30;;;5.20;;
68484;SDS011;55472;50.060;21.960;2022-08-01T08:30:42;9.45;;;4.70;;
68484;SDS011;55472;50.060;21.960;2022-08-01T08:33:08;8.30;;;4.65;;
68484;SDS011;55472;50.060;21.960;2022-08-01T08:35:33;8.10;;;4.63;;
68484;SDS011;55472;50.060;21.960;2022-08-01T08:37:59;8.07;;;4.25;;
68484;SDS011;55472;50.060;21.960;2022-08-01T08:40:26;6.43;;;3.95;;
68484;SDS011;55472;50.060;21.960;2022-08-01T08:42:56;7.47;;;4.63;;
68484;SDS011;55472;50.060;21.960;2022-08-01T08:45:25;10.25;;;4.78;;
68484;SDS011;55472;50.060;21.960;2022-08-01T08:47:52;9.43;;;5.80;;
68484;SDS011;55472;50.060;21.960;2022-08-01T08:50:20;10.68;;;6.30;;
68484;SDS011;55472;50.060;21.960;2022-08-01T08:52:46;9.52;;;5.82;;
68484;SDS011;55472;50.060;21.960;2022-08-01T08:55:13;9.20;;;5.03;;
68484;SDS011;55472;50.060;21.960;2022-08-01T08:57:43;10.68;;;5.93;;
68484;SDS011;55472;50.060;21.960;2022-08-01T09:00:10;8.32;;;4.70;;
68484;SDS011;55472;50.060;21.960;2022-08-01T09:02:41;8.73;;;5.00;;
68484;SDS011;55472;50.060;21.960;2022-08-01T09:05:08;8.85;;;5.05;;
68484;SDS011;55472;50.060;21.960;2022-08-01T09:07:35;8.93;;;5.00;;
68484;SDS011;55472;50.060;21.960;2022-08-01T09:10:01;8.70;;;4.60;;
68484;SDS011;55472;50.060;21.960;2022-08-01T09:12:28;5.63;;;3.90;;
68484;SDS011;55472;50.060;21.960;2022-08-01T09:14:54;6.07;;;3.90;;
68484;SDS011;55472;50.060;21.960;2022-08-01T09:17:20;5.90;;;3.20;;
68484;SDS011;55472;50.060;21.960;2022-08-01T09:19:47;5.90;;;3.40;;
68484;SDS011;55472;50.060;21.960;2022-08-01T09:22:19;5.60;;;3.75;;
68484;SDS011;55472;50.060;21.960;2022-08-01T09:25:09;7.25;;;4.18;;
68484;SDS011;55472;50.060;21.960;2022-08-01T09:27:36;6.53;;;3.90;;
68484;SDS011;55472;50.060;21.960;2022-08-01T09:30:14;6.45;;;3.67;;
68484;SDS011;55472;50.060;21.960;2022-08-01T09:32:53;6.37;;;3.40;;
68484;SDS011;55472;50.060;21.960;2022-08-01T09:35:29;6.05;;;3.55;;
68484;SDS011;55472;50.060;21.960;2022-08-01T09:38:19;7.40;;;3.67;;
68484;SDS011;55472;50.060;21.960;2022-08-01T09:40:49;10.85;;;3.28;;
68484;SDS011;55472;50.060;21.960;2022-08-01T09:43:20;5.53;;;3.50;;
68484;SDS011;55472;50.060;21.960;2022-08-01T09:45:48;5.80;;;3.40;;
68484;SDS011;55472;50.060;21.960;2022-08-01T09:48:15;4.55;;;2.72;;
68484;SDS011;55472;50.060;21.960;2022-08-01T09:50:42;6.20;;;2.50;;
68484;SDS011;55472;50.060;21.960;2022-08-01T09:53:12;5.45;;;2.50;;
68484;SDS011;55472;50.060;21.960;2022-08-01T09:55:39;5.55;;;2.35;;
68484;SDS011;55472;50.060;21.960;2022-08-01T09:58:07;5.70;;;2.30;;
68484;SDS011;55472;50.060;21.960;2022-08-01T10:00:35;5.90;;;2.58;;
68484;SDS011;55472;50.060;21.960;2022-08-01T10:03:18;5.18;;;3.10;;
68484;SDS011;55472;50.060;21.960;2022-08-01T10:05:50;4.60;;;2.70;;
68484;SDS011;55472;50.060;21.960;2022-08-01T10:08:18;4.80;;;3.13;;
68484;SDS011;55472;50.060;21.960;2022-08-01T10:13:37;7.20;;;2.10;;
68484;SDS011;55472;50.060;21.960;2022-08-01T10:16:04;3.20;;;1.98;;
68484;SDS011;55472;50.060;21.960;2022-08-01T10:18:32;4.00;;;2.10;;
68484;SDS011;55472;50.060;21.960;2022-08-01T10:21:03;5.00;;;2.30;;
68484;SDS011;55472;50.060;21.960;2022-08-01T10:23:30;4.73;;;2.43;;
68484;SDS011;55472;50.060;21.960;2022-08-01T10:26:01;4.32;;;2.10;;
68484;SDS011;55472;50.060;21.960;2022-08-01T10:28:30;4.72;;;2.00;;
68484;SDS011;55472;50.060;21.960;2022-08-01T10:31:00;3.90;;;2.00;;
68484;SDS011;55472;50.060;21.960;2022-08-01T10:33:26;4.60;;;2.30;;
68484;SDS011;55472;50.060;21.960;2022-08-01T10:35:55;3.23;;;2.07;;
68484;SDS011;55472;50.060;21.960;2022-08-01T10:38:22;4.15;;;2.47;;
68484;SDS011;55472;50.060;21.960;2022-08-01T10:40:48;5.25;;;2.60;;
68484;SDS011;55472;50.060;21.960;2022-08-01T10:43:15;6.07;;;2.70;;
68484;SDS011;55472;50.060;21.960;2022-08-01T10:45:42;4.25;;;3.10;;
68484;SDS011;55472;50.060;21.960;2022-08-01T10:48:10;6.27;;;3.80;;
68484;SDS011;55472;50.060;21.960;2022-08-01T10:50:47;5.00;;;3.65;;
68484;SDS011;55472;50.060;21.960;2022-08-01T10:53:16;5.18;;;3.72;;
68484;SDS011;55472;50.060;21.960;2022-08-01T11:00:47;5.30;;;3.20;;
68484;SDS011;55472;50.060;21.960;2022-08-01T11:03:13;6.07;;;3.50;;
68484;SDS011;55472;50.060;21.960;2022-08-01T11:05:39;5.43;;;3.50;;
68484;SDS011;55472;50.060;21.960;2022-08-01T11:08:09;5.47;;;3.40;;
68484;SDS011;55472;50.060;21.960;2022-08-01T11:10:46;4.60;;;3.30;;
68484;SDS011;55472;50.060;21.960;2022-08-01T11:13:12;5.57;;;3.50;;
68484;SDS011;55472;50.060;21.960;2022-08-01T11:15:39;36.78;;;11.18;;
68484;SDS011;55472;50.060;21.960;2022-08-01T11:20:54;4.20;;;2.60;;
68484;SDS011;55472;50.060;21.960;2022-08-01T11:23:27;9.63;;;3.53;;
68484;SDS011;55472;50.060;21.960;2022-08-01T11:28:27;9.35;;;2.40;;
68484;SDS011;55472;50.060;21.960;2022-08-01T11:41:36;4.00;;;2.20;;
68484;SDS011;55472;50.060;21.960;2022-08-01T11:44:03;4.87;;;2.40;;
68484;SDS011;55472;50.060;21.960;2022-08-01T11:46:50;9.27;;;2.58;;
68484;SDS011;55472;50.060;21.960;2022-08-01T11:49:32;5.40;;;2.20;;
68484;SDS011;55472;50.060;21.960;2022-08-01T11:52:10;3.75;;;2.20;;
68484;SDS011;55472;50.060;21.960;2022-08-01T11:55:07;5.80;;;2.65;;
68484;SDS011;55472;50.060;21.960;2022-08-01T11:57:34;4.50;;;2.90;;
68484;SDS011;55472;50.060;21.960;2022-08-01T12:00:15;4.85;;;2.90;;
68484;SDS011;55472;50.060;21.960;2022-08-01T12:02:44;6.20;;;2.83;;
68484;SDS011;55472;50.060;21.960;2022-08-01T12:05:15;6.82;;;3.13;;
68484;SDS011;55472;50.060;21.960;2022-08-01T12:07:47;6.00;;;3.50;;
68484;SDS011;55472;50.060;21.960;2022-08-01T12:10:17;6.07;;;3.40;;
68484;SDS011;55472;50.060;21.960;2022-08-01T12:12:49;10.20;;;3.50;;
68484;SDS011;55472;50.060;21.960;2022-08-01T12:15:18;5.25;;;3.38;;
68484;SDS011;55472;50.060;21.960;2022-08-01T12:17:49;5.38;;;3.55;;
68484;SDS011;55472;50.060;21.960;2022-08-01T12:20:21;5.82;;;3.72;;
68484;SDS011;55472;50.060;21.960;2022-08-01T12:22:55;5.07;;;3.23;;
68484;SDS011;55472;50.060;21.960;2022-08-01T12:25:23;6.93;;;3.38;;
68484;SDS011;55472;50.060;21.960;2022-08-01T12:27:50;5.43;;;3.17;;
68484;SDS011;55472;50.060;21.960;2022-08-01T12:30:16;4.88;;;3.20;;
68484;SDS011;55472;50.060;21.960;2022-08-01T12:32:50;5.27;;;3.13;;
68484;SDS011;55472;50.060;21.960;2022-08-01T12:35:19;6.90;;;3.20;;
68484;SDS011;55472;50.060;21.960;2022-08-01T12:37:55;6.05;;;3.05;;
68484;SDS011;55472;50.060;21.960;2022-08-01T12:40:28;5.90;;;3.13;;
68484;SDS011;55472;50.060;21.960;2022-08-01T12:42:59;5.25;;;3.28;;
68484;SDS011;55472;50.060;21.960;2022-08-01T12:45:33;5.40;;;3.13;;
68484;SDS011;55472;50.060;21.960;2022-08-01T12:48:05;4.70;;;3.00;;
68484;SDS011;55472;50.060;21.960;2022-08-01T12:50:34;6.65;;;3.10;;
68484;SDS011;55472;50.060;21.960;2022-08-01T12:53:04;5.07;;;2.90;;
68484;SDS011;55472;50.060;21.960;2022-08-01T12:55:30;4.47;;;2.58;;
68484;SDS011;55472;50.060;21.960;2022-08-01T12:58:10;4.57;;;2.95;;
68484;SDS011;55472;50.060;21.960;2022-08-01T13:00:38;3.93;;;2.50;;
68484;SDS011;55472;50.060;21.960;2022-08-01T13:03:09;4.93;;;2.72;;
68484;SDS011;55472;50.060;21.960;2022-08-01T13:08:19;6.57;;;2.72;;
68484;SDS011;55472;50.060;21.960;2022-08-01T13:10:50;5.65;;;2.50;;
68484;SDS011;55472;50.060;21.960;2022-08-01T13:16:29;4.90;;;2.58;;
68484;SDS011;55472;50.060;21.960;2022-08-01T13:18:56;5.25;;;2.67;;
68484;SDS011;55472;50.060;21.960;2022-08-01T13:21:23;8.07;;;3.03;;
68484;SDS011;55472;50.060;21.960;2022-08-01T13:29:22;6.43;;;3.10;;
68484;SDS011;55472;50.060;21.960;2022-08-01T13:32:12;4.85;;;2.65;;
68484;SDS011;55472;50.060;21.960;2022-08-01T13:34:39;6.20;;;3.20;;
68484;SDS011;55472;50.060;21.960;2022-08-01T13:37:05;5.00;;;3.00;;
68484;SDS011;55472;50.060;21.960;2022-08-01T13:39:31;8.00;;;3.10;;
68484;SDS011;55472;50.060;21.960;2022-08-01T13:42:06;4.57;;;2.97;;
68484;SDS011;55472;50.060;21.960;2022-08-01T13:44:33;5.65;;;2.70;;
68484;SDS011;55472;50.060;21.960;2022-08-01T13:46:59;5.25;;;2.78;;
68484;SDS011;55472;50.060;21.960;2022-08-01T13:49:27;5.97;;;2.63;;
68484;SDS011;55472;50.060;21.960;2022-08-01T13:51:53;4.45;;;2.80;;
68484;SDS011;55472;50.060;21.960;2022-08-01T13:54:19;7.10;;;3.08;;
68484;SDS011;55472;50.060;21.960;2022-08-01T13:56:45;5.43;;;3.10;;
68484;SDS011;55472;50.060;21.960;2022-08-01T13:59:11;5.77;;;2.90;;
68484;SDS011;55472;50.060;21.960;2022-08-01T14:01:38;5.60;;;3.10;;
68484;SDS011;55472;50.060;21.960;2022-08-01T14:04:04;5.85;;;3.25;;
68484;SDS011;55472;50.060;21.960;2022-08-01T14:06:30;4.82;;;2.90;;
68484;SDS011;55472;50.060;21.960;2022-08-01T14:08:57;5.00;;;3.20;;
68484;SDS011;55472;50.060;21.960;2022-08-01T14:11:23;6.88;;;3.00;;
68484;SDS011;55472;50.060;21.960;2022-08-01T14:13:49;6.53;;;3.00;;
68484;SDS011;55472;50.060;21.960;2022-08-01T14:16:16;8.10;;;3.30;;
68484;SDS011;55472;50.060;21.960;2022-08-01T14:18:42;5.28;;;3.00;;
68484;SDS011;55472;50.060;21.960;2022-08-01T14:21:09;6.73;;;3.20;;
68484;SDS011;55472;50.060;21.960;2022-08-01T14:23:34;6.68;;;3.50;;
68484;SDS011;55472;50.060;21.960;2022-08-01T14:26:00;4.88;;;3.60;;
68484;SDS011;55472;50.060;21.960;2022-08-01T14:28:26;5.90;;;3.83;;
68484;SDS011;55472;50.060;21.960;2022-08-01T14:30:53;8.67;;;3.50;;
68484;SDS011;55472;50.060;21.960;2022-08-01T14:33:20;4.38;;;3.20;;
68484;SDS011;55472;50.060;21.960;2022-08-01T14:35:47;5.82;;;3.80;;
68484;SDS011;55472;50.060;21.960;2022-08-01T14:38:13;6.07;;;3.40;;
68484;SDS011;55472;50.060;21.960;2022-08-01T14:40:39;7.47;;;3.83;;
68484;SDS011;55472;50.060;21.960;2022-08-01T14:43:05;10.73;;;3.60;;
68484;SDS011;55472;50.060;21.960;2022-08-01T14:45:31;10.18;;;3.72;;
68484;SDS011;55472;50.060;21.960;2022-08-01T14:47:58;6.80;;;3.83;;
68484;SDS011;55472;50.060;21.960;2022-08-01T14:50:24;7.57;;;3.60;;
68484;SDS011;55472;50.060;21.960;2022-08-01T14:52:53;4.70;;;3.15;;
68484;SDS011;55472;50.060;21.960;2022-08-01T14:55:19;6.43;;;3.40;;
68484;SDS011;55472;50.060;21.960;2022-08-01T14:57:48;5.57;;;3.50;;
68484;SDS011;55472;50.060;21.960;2022-08-01T15:00:15;5.10;;;3.33;;
68484;SDS011;55472;50.060;21.960;2022-08-01T15:02:41;7.97;;;3.28;;
68484;SDS011;55472;50.060;21.960;2022-08-01T15:05:08;6.30;;;3.47;;
68484;SDS011;55472;50.060;21.960;2022-08-01T15:07:35;5.37;;;3.10;;
68484;SDS011;55472;50.060;21.960;2022-08-01T15:10:03;6.95;;;3.92;;
68484;SDS011;55472;50.060;21.960;2022-08-01T15:12:30;7.55;;;3.70;;
68484;SDS011;55472;50.060;21.960;2022-08-01T15:14:57;6.50;;;3.15;;
68484;SDS011;55472;50.060;21.960;2022-08-01T15:17:24;7.25;;;3.30;;
68484;SDS011;55472;50.060;21.960;2022-08-01T15:19:56;6.30;;;3.10;;
68484;SDS011;55472;50.060;21.960;2022-08-01T15:22:28;5.07;;;2.92;;
68484;SDS011;55472;50.060;21.960;2022-08-01T15:25:11;6.82;;;2.97;;
68484;SDS011;55472;50.060;21.960;2022-08-01T15:27:37;4.93;;;2.90;;
68484;SDS011;55472;50.060;21.960;2022-08-01T15:30:03;5.83;;;2.73;;
68484;SDS011;55472;50.060;21.960;2022-08-01T15:32:29;5.50;;;2.70;;